Time;durP1;ratioP1;P1;durP2;ratioP2;P2;SDS_P1;SDS_P2;PMS_P1;PMS_P2;Temp;Humidity;BMP_temperature;BMP_pressure;BME280_temperature;BME280_humidity;BME280_pressure;Samples;Min_cycle;Max_cycle;Signal;HPM_P1;HPM_P2
2021/08/09 00:00:16;;;;;;;13.90;2.87;;;17.70;99.90;;;;;;4997079;28;20184;-82
2021/08/09 00:02:41;;;;;;;11.63;2.43;;;17.60;99.90;;;;;;5001156;28;20191;-82
2021/08/09 00:05:08;;;;;;;5.47;2.23;;;17.60;99.90;;;;;;4996498;28;20193;-80
2021/08/09 00:07:34;;;;;;;7.77;2.20;;;17.60;99.90;;;;;;4978980;28;20183;-80
2021/08/09 00:09:59;;;;;;;9.93;2.20;;;17.60;99.90;;;;;;4996003;28;20218;-79
2021/08/09 00:12:25;;;;;;;14.07;2.60;;;17.60;99.90;;;;;;4980769;28;20242;-79
2021/08/09 00:14:50;;;;;;;11.10;2.40;;;17.60;99.90;;;;;;4995620;28;20204;-83
2021/08/09 00:17:16;;;;;;;10.43;2.67;;;17.60;99.90;;;;;;4983544;28;20652;-88
2021/08/09 00:19:42;;;;;;;10.77;2.40;;;17.50;99.90;;;;;;4980000;28;20189;-79
2021/08/09 00:22:08;;;;;;;9.70;2.93;;;17.40;99.90;;;;;;4997102;28;20230;-80
2021/08/09 00:24:33;;;;;;;10.13;2.40;;;17.40;99.90;;;;;;5004569;28;20195;-79
2021/08/09 00:26:59;;;;;;;11.67;2.30;;;17.50;99.90;;;;;;4999128;28;20218;-81
2021/08/09 00:29:24;;;;;;;10.40;2.40;;;17.50;99.90;;;;;;4996656;28;20700;-79
2021/08/09 00:31:50;;;;;;;7.17;1.87;;;17.50;99.90;;;;;;4996349;28;20186;-80
2021/08/09 00:34:16;;;;;;;7.43;2.17;;;17.60;99.90;;;;;;5002372;28;20706;-81
2021/08/09 00:36:41;;;;;;;8.17;2.40;;;17.60;99.90;;;;;;4995979;28;20349;-80
2021/08/09 00:39:07;;;;;;;8.80;1.90;;;17.70;99.90;;;;;;4998094;28;20187;-85
2021/08/09 00:41:32;;;;;;;12.40;2.47;;;17.70;99.90;;;;;;4999211;28;20181;-85
2021/08/09 00:43:58;;;;;;;6.20;1.97;;;17.80;99.90;;;;;;4998223;28;20190;-87
2021/08/09 00:46:23;;;;;;;6.33;1.80;;;17.70;99.90;;;;;;5003837;28;20678;-88
2021/08/09 00:48:49;;;;;;;10.87;2.83;;;17.70;99.90;;;;;;5002193;28;20196;-87
2021/08/09 00:51:15;;;;;;;9.07;2.07;;;17.60;99.90;;;;;;5002697;28;20270;-80
2021/08/09 00:53:41;;;;;;;11.90;2.37;;;17.70;99.90;;;;;;4997824;28;20567;-86
2021/08/09 00:56:07;;;;;;;9.10;2.40;;;17.80;99.90;;;;;;5001032;28;20570;-87
2021/08/09 00:58:33;;;;;;;6.27;2.00;;;18.00;99.90;;;;;;4980027;28;20180;-83
2021/08/09 01:00:59;;;;;;;16.00;2.57;;;18.00;99.90;;;;;;4979703;28;20180;-87
2021/08/09 01:03:24;;;;;;;5.57;2.00;;;18.10;99.90;;;;;;4999877;28;20733;-86
2021/08/09 01:05:50;;;;;;;7.67;1.77;;;18.10;99.90;;;;;;5004056;28;20187;-87
2021/08/09 01:08:26;;;;;;;6.10;1.57;;;18.20;99.90;;;;;;4999500;28;20594;-88
2021/08/09 01:11:29;;;;;;;8.30;2.17;;;18.10;99.90;;;;;;4996768;28;20266;-87
2021/08/09 01:14:03;;;;;;;9.77;2.10;;;18.00;99.90;;;;;;4952042;28;20752;-85
2021/08/09 01:16:35;;;;;;;4.80;1.83;;;17.90;99.90;;;;;;4984263;28;20195;-88
2021/08/09 01:19:05;;;;;;;9.47;2.00;;;17.80;99.90;;;;;;4998272;28;20179;-88
2021/08/09 01:21:32;;;;;;;8.50;2.00;;;17.80;99.90;;;;;;4999772;28;20215;-85
2021/08/09 01:24:12;;;;;;;12.83;2.37;;;17.80;99.90;;;;;;4980759;28;20273;-88
2021/08/09 01:26:56;;;;;;;7.73;2.50;;;17.80;99.90;;;;;;4978151;28;20719;-88
2021/08/09 01:29:29;;;;;;;8.50;2.43;;;18.00;99.90;;;;;;4976927;28;20197;-84
2021/08/09 01:31:56;;;;;;;8.27;2.30;;;18.00;99.90;;;;;;4983179;28;20207;-85
2021/08/09 01:34:23;;;;;;;12.53;2.47;;;18.00;99.90;;;;;;4977723;28;20245;-88
2021/08/09 01:36:52;;;;;;;8.93;2.37;;;18.00;99.90;;;;;;5003790;28;20639;-83
2021/08/09 01:39:18;;;;;;;12.17;2.60;;;17.90;99.90;;;;;;4979734;28;20548;-86
2021/08/09 01:41:45;;;;;;;13.93;2.57;;;17.90;99.90;;;;;;4994429;28;20669;-89
2021/08/09 01:44:14;;;;;;;13.97;2.40;;;17.80;99.90;;;;;;4994852;28;20263;-79
2021/08/09 01:46:40;;;;;;;7.90;2.47;;;17.60;99.90;;;;;;4982044;28;20187;-80
2021/08/09 01:49:07;;;;;;;9.67;1.90;;;17.50;99.90;;;;;;4998141;28;20202;-78
2021/08/09 01:51:35;;;;;;;8.60;2.37;;;17.60;99.90;;;;;;4979256;28;20226;-79
2021/08/09 01:54:02;;;;;;;7.60;2.13;;;17.60;99.90;;;;;;4977959;28;20212;-83
2021/08/09 01:56:28;;;;;;;7.37;2.10;;;17.70;99.90;;;;;;4981915;28;20193;-81
2021/08/09 01:58:54;;;;;;;6.43;2.27;;;17.80;99.90;;;;;;4977855;28;20192;-85
2021/08/09 02:01:21;;;;;;;10.33;2.57;;;17.80;99.90;;;;;;4994785;28;20184;-86
2021/08/09 02:03:47;;;;;;;8.47;2.90;;;17.80;99.90;;;;;;4994024;28;20189;-86
2021/08/09 02:06:12;;;;;;;7.10;2.20;;;17.80;99.90;;;;;;4977100;28;20189;-84
2021/08/09 02:08:38;;;;;;;7.30;2.27;;;17.90;99.90;;;;;;4979373;28;20207;-87
2021/08/09 02:11:38;;;;;;;7.90;2.30;;;17.90;99.90;;;;;;4999450;28;20192;-84
2021/08/09 02:14:06;;;;;;;10.90;3.20;;;17.80;99.90;;;;;;4948333;28;20216;-88
2021/08/09 02:16:42;;;;;;;8.57;2.70;;;17.90;99.90;;;;;;4976201;28;20243;-86
2021/08/09 02:19:18;;;;;;;10.00;2.43;;;17.80;99.90;;;;;;4995575;28;20243;-82
2021/08/09 02:22:00;;;;;;;8.07;2.47;;;17.80;99.90;;;;;;4998453;28;20295;-88
2021/08/09 02:24:36;;;;;;;9.47;3.53;;;17.70;99.90;;;;;;4995263;28;20566;-86
2021/08/09 02:27:19;;;;;;;10.37;3.07;;;17.50;99.90;;;;;;4980139;28;20185;-88
2021/08/09 02:29:49;;;;;;;7.00;2.37;;;17.50;99.90;;;;;;4975071;28;20271;-84
2021/08/09 02:32:17;;;;;;;8.33;2.20;;;17.60;99.90;;;;;;4976176;28;20619;-87
2021/08/09 02:34:44;;;;;;;10.20;3.13;;;17.70;99.90;;;;;;4976039;28;20180;-87
2021/08/09 02:37:10;;;;;;;8.23;2.80;;;17.80;99.90;;;;;;4994771;28;20193;-88
2021/08/09 02:39:38;;;;;;;9.57;2.83;;;17.80;99.90;;;;;;4984503;28;20178;-87
2021/08/09 02:42:05;;;;;;;10.37;2.43;;;17.90;99.90;;;;;;4989946;28;20644;-78
2021/08/09 02:44:32;;;;;;;12.00;3.00;;;17.80;99.90;;;;;;5003710;28;20550;-78
2021/08/09 02:46:59;;;;;;;6.77;2.67;;;17.70;99.90;;;;;;4976325;28;20239;-80
2021/08/09 02:49:26;;;;;;;7.73;2.87;;;17.70;99.90;;;;;;4997472;28;20649;-78
2021/08/09 02:51:52;;;;;;;4.93;1.97;;;17.50;99.90;;;;;;4994034;28;20275;-79
2021/08/09 02:54:19;;;;;;;8.03;2.63;;;17.40;99.90;;;;;;4982613;28;20226;-81
2021/08/09 02:56:46;;;;;;;4.73;2.50;;;17.30;99.90;;;;;;4996184;28;20187;-79
2021/08/09 02:59:13;;;;;;;5.13;2.10;;;17.20;99.90;;;;;;4994968;28;20648;-78
2021/08/09 03:01:40;;;;;;;5.20;2.20;;;17.20;99.90;;;;;;4984192;28;20289;-84
2021/08/09 03:04:08;;;;;;;8.03;2.23;;;17.30;99.90;;;;;;4993258;28;20248;-89
2021/08/09 03:06:34;;;;;;;5.00;2.20;;;17.20;99.90;;;;;;4980371;28;20218;-87
2021/08/09 03:09:03;;;;;;;6.63;2.53;;;17.20;99.90;;;;;;4995414;28;20217;-87
2021/08/09 03:11:29;;;;;;;8.33;2.50;;;17.20;99.90;;;;;;4976568;28;20662;-87
2021/08/09 03:13:55;;;;;;;4.80;2.53;;;17.30;99.90;;;;;;4975157;28;20237;-88
2021/08/09 03:16:20;;;;;;;8.03;2.47;;;17.30;99.90;;;;;;4994840;28;20184;-79
2021/08/09 03:18:46;;;;;;;5.30;2.30;;;17.30;99.90;;;;;;4979999;28;20560;-79
2021/08/09 03:21:11;;;;;;;5.00;1.87;;;17.30;99.90;;;;;;4974626;28;20209;-81
2021/08/09 03:23:37;;;;;;;5.40;2.27;;;17.20;99.90;;;;;;4992478;28;20246;-78
2021/08/09 03:26:04;;;;;;;6.40;2.83;;;17.30;99.90;;;;;;4977343;28;20183;-78
2021/08/09 03:28:29;;;;;;;7.33;2.80;;;17.20;99.90;;;;;;4978894;28;20198;-78
2021/08/09 03:30:55;;;;;;;4.70;2.50;;;17.30;99.90;;;;;;4974874;28;20189;-78
2021/08/09 03:33:20;;;;;;;6.13;2.40;;;17.30;99.90;;;;;;4998616;28;20224;-79
2021/08/09 03:35:46;;;;;;;3.43;2.17;;;17.30;99.90;;;;;;4982674;28;20614;-84
2021/08/09 03:38:11;;;;;;;4.43;2.17;;;17.30;99.90;;;;;;4976047;28;20185;-85
2021/08/09 03:40:37;;;;;;;4.40;2.10;;;17.30;99.90;;;;;;4994167;28;20228;-80
2021/08/09 03:43:04;;;;;;;4.87;1.90;;;17.40;99.90;;;;;;4995687;28;20207;-81
2021/08/09 03:45:30;;;;;;;6.30;2.43;;;17.30;99.90;;;;;;4972239;28;20213;-81
2021/08/09 03:47:55;;;;;;;7.03;2.30;;;17.30;99.90;;;;;;4978538;28;20196;-78
2021/08/09 03:50:21;;;;;;;3.37;2.23;;;17.20;99.90;;;;;;4996421;28;20181;-79
2021/08/09 03:52:52;;;;;;;4.80;2.40;;;17.20;99.90;;;;;;4980885;28;20219;-79
2021/08/09 03:55:18;;;;;;;4.97;2.27;;;17.20;99.90;;;;;;5001528;28;20183;-80
2021/08/09 03:57:44;;;;;;;6.60;2.60;;;17.20;99.90;;;;;;4981138;28;20239;-80
2021/08/09 04:00:10;;;;;;;7.60;2.30;;;17.20;99.90;;;;;;4998613;28;20187;-79
2021/08/09 04:02:37;;;;;;;6.70;2.60;;;17.10;99.90;;;;;;5003833;28;20186;-80
2021/08/09 04:05:10;;;;;;;3.53;1.90;;;17.10;99.90;;;;;;4995741;28;20684;-79
2021/08/09 04:07:37;;;;;;;4.97;2.53;;;17.00;99.90;;;;;;4995931;28;20211;-83
2021/08/09 04:10:04;;;;;;;6.37;2.10;;;17.00;99.90;;;;;;4979300;28;20185;-82
2021/08/09 04:12:30;;;;;;;6.03;2.40;;;17.10;99.90;;;;;;4999772;28;20212;-87
2021/08/09 04:14:56;;;;;;;4.43;2.00;;;17.20;99.90;;;;;;4984726;28;20207;-87
2021/08/09 04:17:21;;;;;;;6.40;2.10;;;17.20;99.90;;;;;;4982012;28;20216;-88
2021/08/09 04:19:47;;;;;;;3.87;2.03;;;17.30;99.90;;;;;;4984237;28;20177;-82
2021/08/09 04:22:12;;;;;;;5.43;2.70;;;17.20;99.90;;;;;;4997283;28;20265;-78
2021/08/09 04:24:38;;;;;;;7.37;2.67;;;17.30;99.90;;;;;;4995366;28;20191;-79
2021/08/09 04:27:03;;;;;;;4.37;1.90;;;17.30;99.90;;;;;;4977313;28;20189;-78
2021/08/09 04:29:29;;;;;;;4.97;1.90;;;17.30;99.90;;;;;;4977142;28;20535;-87
2021/08/09 04:31:55;;;;;;;4.87;2.30;;;17.30;99.90;;;;;;4970938;28;20603;-80
2021/08/09 04:34:20;;;;;;;4.60;2.70;;;17.40;99.90;;;;;;4978821;28;20256;-80
2021/08/09 04:36:46;;;;;;;5.03;2.00;;;17.30;99.90;;;;;;4996219;28;20199;-80
2021/08/09 04:39:12;;;;;;;8.03;2.30;;;17.30;99.90;;;;;;4992839;28;20187;-79
2021/08/09 04:41:37;;;;;;;5.53;2.03;;;17.20;99.90;;;;;;4981547;28;20229;-80
2021/08/09 04:44:03;;;;;;;5.67;2.17;;;17.10;99.90;;;;;;4979009;28;20651;-83
2021/08/09 04:46:29;;;;;;;9.13;2.50;;;17.20;99.90;;;;;;5006551;28;20194;-80
2021/08/09 04:48:55;;;;;;;5.67;2.50;;;17.20;99.90;;;;;;4986729;28;20647;-79
2021/08/09 04:51:21;;;;;;;4.17;2.17;;;17.20;99.90;;;;;;4996899;28;20235;-87
2021/08/09 04:53:46;;;;;;;6.37;2.17;;;17.20;99.90;;;;;;4978296;28;20311;-82
2021/08/09 04:56:12;;;;;;;6.13;2.10;;;17.30;99.90;;;;;;4984384;28;20551;-80
2021/08/09 04:58:37;;;;;;;6.90;2.37;;;17.20;99.90;;;;;;5006771;28;20190;-79
2021/08/09 05:01:03;;;;;;;5.37;2.00;;;17.20;99.90;;;;;;4977464;28;20195;-81
2021/08/09 05:03:29;;;;;;;3.57;2.13;;;17.10;99.90;;;;;;4995105;28;20617;-78
2021/08/09 05:05:54;;;;;;;6.13;2.10;;;17.10;99.90;;;;;;4995215;28;20199;-83
2021/08/09 05:08:20;;;;;;;5.43;2.30;;;17.20;99.90;;;;;;4993467;28;20241;-79
2021/08/09 05:10:45;;;;;;;4.27;2.00;;;17.10;99.90;;;;;;5001064;28;20692;-79
2021/08/09 05:13:11;;;;;;;4.63;2.20;;;17.10;99.90;;;;;;4977987;28;20212;-79
2021/08/09 05:15:38;;;;;;;6.60;2.67;;;17.00;99.90;;;;;;4998562;28;20203;-79
2021/08/09 05:18:04;;;;;;;6.30;2.33;;;17.00;99.90;;;;;;4968987;28;20186;-78
2021/08/09 05:20:30;;;;;;;7.33;2.27;;;16.90;99.90;;;;;;5005646;28;20538;-82
2021/08/09 05:22:56;;;;;;;5.17;2.30;;;16.90;99.90;;;;;;4995032;28;20271;-82
2021/08/09 05:25:23;;;;;;;9.40;2.10;;;16.90;99.90;;;;;;5000379;28;20192;-78
2021/08/09 05:27:49;;;;;;;3.10;1.97;;;16.90;99.90;;;;;;4976486;28;20614;-79
2021/08/09 05:30:16;;;;;;;4.67;2.03;;;16.90;99.90;;;;;;4981180;28;20288;-86
2021/08/09 05:32:42;;;;;;;5.97;2.27;;;16.90;99.90;;;;;;4975359;28;20232;-78
2021/08/09 05:35:08;;;;;;;5.23;2.30;;;16.90;99.90;;;;;;4974718;28;20295;-79
2021/08/09 05:37:36;;;;;;;5.13;1.93;;;16.90;99.90;;;;;;4994412;28;20178;-78
2021/08/09 05:40:04;;;;;;;3.83;1.70;;;17.00;99.90;;;;;;4994464;28;20186;-77
2021/08/09 05:42:30;;;;;;;7.73;2.07;;;16.90;99.90;;;;;;4975058;28;20218;-78
2021/08/09 05:44:55;;;;;;;3.10;1.60;;;17.10;99.90;;;;;;4994526;28;20579;-78
2021/08/09 05:47:21;;;;;;;3.33;1.70;;;17.00;99.90;;;;;;4993687;28;20646;-78
2021/08/09 05:49:47;;;;;;;4.67;1.83;;;17.10;99.90;;;;;;4994149;28;20245;-78
2021/08/09 05:52:24;;;;;;;6.23;1.50;;;17.30;99.90;;;;;;4999407;28;20191;-79
2021/08/09 05:54:50;;;;;;;2.83;1.87;;;17.40;99.90;;;;;;4998491;28;20192;-78
2021/08/09 05:57:16;;;;;;;3.47;1.77;;;17.40;99.90;;;;;;4982120;28;20188;-78
2021/08/09 05:59:42;;;;;;;8.87;2.37;;;17.50;99.90;;;;;;4995559;28;20270;-78
2021/08/09 06:02:08;;;;;;;7.73;2.17;;;17.60;99.90;;;;;;4994122;28;20223;-78
2021/08/09 06:04:34;;;;;;;5.97;1.90;;;17.60;99.90;;;;;;4996853;28;20336;-78
2021/08/09 07:04:44;;;;;;;5.57;1.87;;;18.20;99.90;;;;;;4975481;23;20242;-81
2021/08/09 10:40:05;;;;;;;3.97;1.37;;;21.20;99.90;;;;;;5973101;23;20178;-75
2021/08/09 17:52:16;;;;;;;2.47;1.63;;;24.80;96.20;;;;;;4712175;26;20232;-85
2021/08/09 17:54:45;;;;;;;3.93;2.03;;;24.20;96.70;;;;;;4978686;28;20313;-86
2021/08/09 17:57:10;;;;;;;3.70;1.70;;;23.80;97.60;;;;;;4995902;28;20306;-86
2021/08/09 17:59:43;;;;;;;1.57;1.33;;;23.50;97.50;;;;;;4977380;28;20322;-86
2021/08/09 18:02:11;;;;;;;3.00;1.80;;;23.30;97.90;;;;;;4966217;28;20693;-86
2021/08/09 18:04:36;;;;;;;2.17;1.60;;;23.10;97.90;;;;;;4965115;28;20189;-86
2021/08/09 18:07:02;;;;;;;2.23;1.60;;;23.00;98.40;;;;;;4962222;28;20245;-85
2021/08/09 18:09:28;;;;;;;3.87;1.80;;;23.00;98.50;;;;;;4960581;28;20209;-87
2021/08/09 18:11:55;;;;;;;3.67;1.63;;;22.80;98.60;;;;;;4969923;28;20721;-85
2021/08/09 18:14:22;;;;;;;2.17;1.50;;;22.70;98.80;;;;;;4960981;28;20282;-85
2021/08/09 18:16:49;;;;;;;2.67;1.87;;;22.50;99.30;;;;;;4959624;28;20181;-85
2021/08/09 18:19:16;;;;;;;3.03;1.90;;;22.20;99.80;;;;;;4961203;28;20271;-85
2021/08/09 18:21:42;;;;;;;2.93;1.77;;;22.00;99.90;;;;;;4962671;28;20276;-85
2021/08/09 18:24:09;;;;;;;2.87;1.70;;;22.00;99.90;;;;;;4950241;28;20178;-85
2021/08/09 18:26:43;;;;;;;3.67;1.80;;;21.90;99.90;;;;;;4942063;28;20192;-85
2021/08/09 18:29:28;;;;;;;2.47;1.70;;;22.00;99.90;;;;;;5133616;27;20565;-86
2021/08/09 18:31:59;;;;;;;3.30;1.90;;;22.10;99.90;;;;;;5132312;27;20174;-84
2021/08/09 18:34:27;;;;;;;3.13;1.90;;;22.20;99.90;;;;;;5119016;28;20543;-85
2021/08/09 18:36:59;;;;;;;3.03;1.70;;;22.10;99.90;;;;;;5124180;28;20175;-85
2021/08/09 18:39:25;;;;;;;3.80;2.07;;;22.00;99.90;;;;;;5112063;28;20217;-84
2021/08/09 18:41:53;;;;;;;4.77;1.70;;;22.00;99.90;;;;;;5128159;28;20565;-85
2021/08/09 18:44:21;;;;;;;3.57;2.20;;;21.90;99.90;;;;;;5114967;28;20292;-85
2021/08/09 18:46:47;;;;;;;4.53;1.90;;;21.80;99.90;;;;;;5140801;28;20210;-86
2021/08/09 18:49:16;;;;;;;2.83;1.73;;;21.70;99.90;;;;;;5141791;28;20197;-85
2021/08/09 18:51:42;;;;;;;3.30;2.00;;;21.70;99.90;;;;;;5120835;28;20240;-87
2021/08/09 18:54:08;;;;;;;5.87;3.13;;;21.60;99.90;;;;;;5116194;28;20178;-89
2021/08/09 18:56:33;;;;;;;5.30;2.67;;;21.50;99.90;;;;;;5104970;28;20650;-88
2021/08/09 18:59:00;;;;;;;6.70;2.93;;;20.80;99.90;;;;;;5107669;28;20314;-87
2021/08/09 19:01:26;;;;;;;4.60;3.17;;;20.30;99.90;;;;;;5107026;28;20174;-86
2021/08/09 19:03:57;;;;;;;6.53;3.50;;;20.10;99.90;;;;;;5108939;28;20182;-86
2021/08/09 19:06:23;;;;;;;5.57;3.30;;;19.90;99.90;;;;;;5107139;28;20272;-84
2021/08/09 19:08:49;;;;;;;6.70;3.80;;;19.70;99.90;;;;;;5112402;28;20304;-84
2021/08/09 19:11:15;;;;;;;5.43;3.27;;;19.60;99.90;;;;;;5108189;28;20262;-84
2021/08/09 19:13:42;;;;;;;9.07;4.00;;;19.40;99.90;;;;;;5107054;28;20659;-85
2021/08/09 19:16:12;;;;;;;6.23;3.73;;;19.40;99.90;;;;;;5116212;28;20188;-84
2021/08/09 19:18:38;;;;;;;9.07;4.37;;;19.50;99.90;;;;;;5100988;28;20158;-84
2021/08/09 19:21:04;;;;;;;6.80;3.47;;;19.60;99.90;;;;;;5099155;28;20197;-86
2021/08/09 19:23:30;;;;;;;4.97;3.17;;;19.70;99.90;;;;;;5109086;28;21305;-84
2021/08/09 19:25:56;;;;;;;3.93;3.00;;;19.70;99.90;;;;;;5097808;28;20285;-84
2021/08/09 19:28:25;;;;;;;7.37;3.77;;;19.80;99.90;;;;;;5103251;28;20685;-83
2021/08/09 19:30:51;;;;;;;3.43;2.23;;;19.80;99.90;;;;;;5110049;28;20169;-84
2021/08/09 19:33:17;;;;;;;3.90;2.50;;;19.80;99.90;;;;;;5094157;28;20585;-86
2021/08/09 19:35:43;;;;;;;4.83;2.40;;;19.80;99.90;;;;;;5105043;28;20186;-85
2021/08/09 19:38:08;;;;;;;3.63;2.40;;;19.90;99.90;;;;;;5104615;28;20186;-90
2021/08/09 19:40:36;;;;;;;3.33;2.60;;;19.90;99.90;;;;;;5081979;28;20583;-84
2021/08/09 19:43:05;;;;;;;6.17;2.73;;;19.90;99.90;;;;;;5091415;28;20178;-86
2021/08/09 19:45:31;;;;;;;3.43;2.60;;;19.90;99.90;;;;;;5095875;28;20192;-90
2021/08/09 19:47:56;;;;;;;4.77;2.60;;;19.80;99.90;;;;;;5092844;28;20202;-84
2021/08/09 19:50:22;;;;;;;3.57;2.60;;;19.70;99.90;;;;;;5094482;28;20174;-87
2021/08/09 19:52:48;;;;;;;4.07;2.70;;;19.60;99.90;;;;;;5095740;28;20273;-84
2021/08/09 19:55:14;;;;;;;4.60;2.53;;;19.60;99.90;;;;;;5088832;28;20173;-89
2021/08/09 19:57:40;;;;;;;5.13;2.77;;;19.50;99.90;;;;;;5091114;28;20532;-88
2021/08/09 20:00:07;;;;;;;3.90;2.47;;;19.50;99.90;;;;;;5092401;28;20184;-92
2021/08/09 20:02:32;;;;;;;3.37;2.13;;;19.40;99.90;;;;;;5098037;28;20257;-88
2021/08/09 20:04:58;;;;;;;5.40;2.53;;;19.50;99.90;;;;;;5093823;28;20200;-84
2021/08/09 20:07:23;;;;;;;7.17;2.83;;;19.60;99.90;;;;;;5106545;28;20224;-85
2021/08/09 20:09:49;;;;;;;3.20;2.13;;;19.50;99.90;;;;;;5110635;28;20547;-84
2021/08/09 20:12:15;;;;;;;4.27;2.80;;;19.50;99.90;;;;;;5097140;28;20234;-84
2021/08/09 20:14:44;;;;;;;5.37;3.13;;;19.60;99.90;;;;;;5085065;28;20177;-84
2021/08/09 20:17:10;;;;;;;5.53;3.00;;;19.60;99.90;;;;;;5102479;28;20170;-88
2021/08/09 20:19:37;;;;;;;5.27;2.87;;;19.50;99.90;;;;;;5106601;28;20636;-89
2021/08/09 20:22:03;;;;;;;4.43;2.77;;;19.40;99.90;;;;;;5102612;28;20186;-85
2021/08/09 20:24:32;;;;;;;6.03;3.30;;;19.40;99.90;;;;;;5104568;28;20185;-87
2021/08/09 20:26:58;;;;;;;6.57;2.87;;;19.60;99.90;;;;;;5093628;28;20166;-96
2021/08/09 20:29:24;;;;;;;3.80;3.30;;;19.60;99.90;;;;;;5103031;28;20186;-88
2021/08/09 20:31:49;;;;;;;5.20;3.23;;;19.70;99.90;;;;;;5104449;28;20266;-84
2021/08/09 20:34:15;;;;;;;9.37;3.10;;;19.70;99.90;;;;;;5093599;28;20173;-85
2021/08/09 20:36:41;;;;;;;7.13;3.20;;;19.60;99.90;;;;;;5089937;28;20175;-86
2021/08/09 20:39:07;;;;;;;7.50;3.63;;;19.50;99.90;;;;;;5109029;28;20176;-87
2021/08/09 20:41:32;;;;;;;3.93;3.10;;;19.70;99.90;;;;;;5094221;28;20617;-92
2021/08/09 20:43:58;;;;;;;10.97;3.77;;;19.70;99.90;;;;;;5084705;28;20179;-85
2021/08/09 20:46:25;;;;;;;4.33;3.17;;;19.70;99.90;;;;;;5093549;28;20183;-87
2021/08/09 20:48:52;;;;;;;5.87;3.10;;;19.70;99.90;;;;;;5097046;28;20265;-88
2021/08/09 20:51:17;;;;;;;5.80;3.70;;;19.50;99.90;;;;;;5099090;28;20514;-85
2021/08/09 20:53:44;;;;;;;4.70;3.10;;;19.70;99.90;;;;;;5088126;28;20182;-84
2021/08/09 20:56:11;;;;;;;7.27;3.57;;;19.80;99.90;;;;;;5100865;28;20170;-86
2021/08/09 20:58:39;;;;;;;4.07;2.87;;;19.50;99.90;;;;;;5094057;28;20179;-86
2021/08/09 21:01:05;;;;;;;4.57;3.67;;;19.50;99.90;;;;;;5114213;28;20174;-86
2021/08/09 21:03:32;;;;;;;5.73;3.47;;;19.60;99.90;;;;;;5088865;28;20202;-85
2021/08/09 21:05:58;;;;;;;5.50;3.37;;;19.60;99.90;;;;;;5088777;28;20183;-85
2021/08/09 21:08:25;;;;;;;4.07;2.80;;;19.50;99.90;;;;;;5090505;28;20305;-85
2021/08/09 21:10:54;;;;;;;6.20;3.30;;;19.60;99.90;;;;;;5083886;28;20171;-86
2021/08/09 21:13:21;;;;;;;4.53;2.87;;;19.40;99.90;;;;;;5077843;28;20189;-86
2021/08/09 21:15:46;;;;;;;7.20;3.43;;;19.30;99.90;;;;;;5079756;28;20176;-85
2021/08/09 21:18:12;;;;;;;11.03;3.90;;;19.30;99.90;;;;;;5083137;28;20178;-85
2021/08/09 21:20:41;;;;;;;9.57;3.67;;;19.30;99.90;;;;;;5089389;28;20203;-85
2021/08/09 21:23:06;;;;;;;4.07;2.80;;;19.10;99.90;;;;;;5092679;28;20656;-84
2021/08/09 21:25:32;;;;;;;4.30;3.07;;;19.00;99.90;;;;;;5093236;28;20171;-87
2021/08/09 21:27:58;;;;;;;6.27;3.47;;;19.10;99.90;;;;;;5089357;28;20202;-85
2021/08/09 21:30:28;;;;;;;5.60;2.90;;;18.90;99.90;;;;;;5094406;28;20656;-84
2021/08/09 21:33:00;;;;;;;5.27;3.27;;;19.00;99.90;;;;;;5097603;28;20185;-84
2021/08/09 21:35:26;;;;;;;6.20;3.30;;;19.10;99.90;;;;;;5101447;28;20227;-85
2021/08/09 21:37:52;;;;;;;5.70;3.20;;;19.10;99.90;;;;;;5093275;28;20189;-85
2021/08/09 21:40:18;;;;;;;3.73;2.70;;;19.00;99.90;;;;;;5081807;28;20199;-85
2021/08/09 21:42:44;;;;;;;6.83;3.20;;;19.00;99.90;;;;;;5083665;28;20169;-83
2021/08/09 21:45:10;;;;;;;7.20;3.27;;;18.90;99.90;;;;;;5096665;28;20174;-85
2021/08/09 21:47:36;;;;;;;7.73;3.80;;;18.80;99.90;;;;;;5090910;28;20202;-88
2021/08/09 21:50:04;;;;;;;7.70;3.50;;;18.70;99.90;;;;;;5087987;28;20192;-85
2021/08/09 21:52:32;;;;;;;5.07;3.50;;;18.60;99.90;;;;;;5089184;28;20178;-86
2021/08/09 21:55:06;;;;;;;7.97;4.33;;;18.70;99.90;;;;;;5090642;28;20205;-86
2021/08/09 21:57:32;;;;;;;8.37;3.57;;;18.80;99.90;;;;;;5077810;28;20554;-86
2021/08/09 21:59:58;;;;;;;7.47;3.57;;;18.70;99.90;;;;;;5079747;28;20178;-86
2021/08/09 22:02:31;;;;;;;9.77;3.40;;;18.60;99.90;;;;;;5079030;28;20261;-86
2021/08/09 22:04:56;;;;;;;7.57;4.27;;;18.40;99.90;;;;;;5087722;28;20179;-86
2021/08/09 22:07:27;;;;;;;5.20;3.50;;;18.40;99.90;;;;;;5092480;28;20284;-86
2021/08/09 22:09:59;;;;;;;4.87;3.47;;;18.30;99.90;;;;;;5093987;28;20218;-86
2021/08/09 22:12:25;;;;;;;6.87;3.77;;;18.30;99.90;;;;;;5096282;28;20256;-85
2021/08/09 22:14:51;;;;;;;6.40;3.00;;;18.40;99.90;;;;;;5093297;28;20209;-85
2021/08/09 22:17:24;;;;;;;6.17;3.23;;;18.50;99.90;;;;;;5085855;28;20180;-85
2021/08/09 22:19:50;;;;;;;6.00;3.37;;;18.60;99.90;;;;;;5082166;28;20208;-85
2021/08/09 22:22:17;;;;;;;6.40;3.20;;;18.50;99.90;;;;;;5089876;28;20243;-86
2021/08/09 22:24:43;;;;;;;5.13;3.07;;;18.50;99.90;;;;;;5087770;28;20295;-87
2021/08/09 22:27:09;;;;;;;6.03;3.10;;;18.50;99.90;;;;;;5083144;28;20176;-85
2021/08/09 22:29:35;;;;;;;5.90;3.40;;;18.50;99.90;;;;;;5084058;28;20254;-86
2021/08/09 22:32:00;;;;;;;5.23;3.40;;;18.50;99.90;;;;;;5085424;28;20708;-85
2021/08/09 22:34:27;;;;;;;7.77;3.80;;;18.50;99.90;;;;;;5093023;28;20222;-86
2021/08/09 22:36:52;;;;;;;9.20;3.80;;;18.50;99.90;;;;;;5085515;28;20173;-85
2021/08/09 22:39:18;;;;;;;9.10;3.40;;;18.60;99.90;;;;;;5087558;28;20269;-86
2021/08/09 22:41:44;;;;;;;6.80;3.37;;;18.60;99.90;;;;;;5089123;28;20210;-86
2021/08/09 22:44:10;;;;;;;11.00;3.27;;;18.50;99.90;;;;;;5088818;28;20212;-86
2021/08/09 22:46:35;;;;;;;10.13;3.90;;;18.50;99.90;;;;;;5089978;28;20181;-86
2021/08/09 22:49:02;;;;;;;6.23;3.27;;;18.40;99.90;;;;;;5091386;28;20204;-85
2021/08/09 22:51:28;;;;;;;5.10;3.00;;;18.50;99.90;;;;;;5083110;28;20179;-90
2021/08/09 22:53:55;;;;;;;6.90;3.10;;;18.70;99.90;;;;;;5087543;28;20170;-86
2021/08/09 22:56:21;;;;;;;5.47;3.60;;;18.60;99.90;;;;;;5088671;28;20179;-86
2021/08/09 22:58:47;;;;;;;5.67;3.10;;;18.60;99.90;;;;;;5092002;28;20251;-85
2021/08/09 23:01:12;;;;;;;5.83;3.00;;;18.40;99.90;;;;;;5092017;28;20177;-85
2021/08/09 23:03:39;;;;;;;5.03;3.27;;;18.40;99.90;;;;;;5079976;28;20175;-85
2021/08/09 23:06:05;;;;;;;6.80;3.10;;;18.30;99.90;;;;;;5082941;28;20164;-85
2021/08/09 23:08:30;;;;;;;7.07;3.77;;;18.30;99.90;;;;;;5087908;28;20216;-86
2021/08/09 23:11:06;;;;;;;8.33;3.47;;;18.20;99.90;;;;;;5087137;28;20532;-86
2021/08/09 23:13:40;;;;;;;6.17;3.40;;;18.20;99.90;;;;;;5091644;28;20575;-85
2021/08/09 23:16:09;;;;;;;6.13;2.90;;;18.40;99.90;;;;;;5083407;28;20279;-85
2021/08/09 23:18:35;;;;;;;5.57;3.10;;;18.40;99.90;;;;;;5082668;28;20552;-86
2021/08/09 23:21:01;;;;;;;5.33;3.13;;;18.50;99.90;;;;;;5089619;28;20194;-86
2021/08/09 23:23:27;;;;;;;7.83;3.63;;;18.60;99.90;;;;;;5095560;28;20184;-90
2021/08/09 23:25:52;;;;;;;5.03;3.50;;;18.60;99.90;;;;;;5100233;28;20183;-86
2021/08/09 23:28:18;;;;;;;6.80;3.33;;;18.50;99.90;;;;;;5091151;28;20271;-91
2021/08/09 23:30:44;;;;;;;5.40;3.07;;;18.50;99.90;;;;;;5092761;28;20175;-86
2021/08/09 23:33:11;;;;;;;7.70;3.20;;;18.50;99.90;;;;;;5083693;28;20194;-86
2021/08/09 23:35:40;;;;;;;7.13;3.40;;;18.80;99.90;;;;;;5093671;28;20178;-86
2021/08/09 23:38:05;;;;;;;6.53;3.10;;;18.80;99.90;;;;;;5091241;28;20185;-85
2021/08/09 23:40:31;;;;;;;7.67;3.33;;;18.80;99.90;;;;;;5100196;28;20183;-86
2021/08/09 23:42:57;;;;;;;5.87;2.83;;;18.70;99.90;;;;;;5084119;28;20637;-86
2021/08/09 23:45:22;;;;;;;4.60;2.90;;;18.70;99.90;;;;;;5091587;28;20199;-86
2021/08/09 23:47:48;;;;;;;5.90;3.77;;;18.80;99.90;;;;;;5081947;28;20264;-88
2021/08/09 23:50:14;;;;;;;6.47;3.30;;;18.80;99.90;;;;;;5098355;28;20178;-85
2021/08/09 23:52:39;;;;;;;8.47;4.00;;;18.70;99.90;;;;;;5097962;28;20186;-86
2021/08/09 23:55:05;;;;;;;6.73;3.30;;;18.90;99.90;;;;;;5097891;28;20204;-84
2021/08/09 23:57:32;;;;;;;6.47;3.50;;;19.00;99.90;;;;;;5085311;28;20178;-89
2021/08/09 23:59:58;;;;;;;7.93;3.97;;;19.00;99.90;;;;;;5096613;28;20230;-88
